createdAt,value
2022-10-28T00:02:03.629Z,101816.78
2022-10-28T00:04:35.955Z,101824.94
2022-10-28T00:07:07.803Z,101824.91
2022-10-28T00:09:42.556Z,101817.47
2022-10-28T00:12:14.355Z,101809.69
2022-10-28T00:14:46.515Z,101815.06
2022-10-28T00:17:18.425Z,101827.25
2022-10-28T00:19:50.593Z,101830.63
2022-10-28T00:22:22.633Z,101829.31
2022-10-28T00:24:57.415Z,101834.66
2022-10-28T00:27:30.072Z,101828.97
2022-10-28T00:30:02.254Z,101827.75
2022-10-28T00:32:34.914Z,101825.91
2022-10-28T00:35:07.871Z,101820.13
2022-10-28T00:37:39.663Z,101827.44
2022-10-28T00:40:15.554Z,101821.31
2022-10-28T00:42:47.442Z,101816.91
2022-10-28T00:45:19.773Z,101811.16
2022-10-28T00:47:56.451Z,101822.16
2022-10-28T00:50:52.074Z,101820.44
2022-10-28T00:53:26.974Z,101809.94
2022-10-28T00:56:05.093Z,101798.28
2022-10-28T00:58:38.221Z,101813.00
2022-10-28T01:04:31.222Z,101806.94
2022-10-28T01:07:04.544Z,101799.84
2022-10-28T01:09:36.192Z,101795.78
2022-10-28T01:12:18.643Z,101801.38
2022-10-28T01:15:04.135Z,101799.31
2022-10-28T01:17:51.473Z,101805.22
2022-10-28T01:20:48.449Z,101796.63
2022-10-28T01:23:29.688Z,101787.81
2022-10-28T01:26:15.720Z,101799.50
2022-10-28T01:29:28.442Z,101798.44
2022-10-28T01:32:12.182Z,101776.09
2022-10-28T01:34:56.243Z,101784.75
2022-10-28T01:37:36.141Z,101784.72
2022-10-28T01:40:15.236Z,101782.19
2022-10-28T01:42:54.403Z,101775.09
2022-10-28T01:45:31.932Z,101776.13
2022-10-28T01:48:11.013Z,101776.75
2022-10-28T01:50:49.870Z,101778.00
2022-10-28T01:53:27.231Z,101773.91
2022-10-28T01:56:05.683Z,101771.91
2022-10-28T01:58:40.145Z,101771.00
2022-10-28T02:01:13.917Z,101769.03
2022-10-28T02:03:49.093Z,101761.63
2022-10-28T02:06:23.974Z,101755.84
2022-10-28T02:09:18.602Z,101762.66
2022-10-28T02:12:07.414Z,101767.22
2022-10-28T02:14:56.018Z,101761.63
2022-10-28T02:17:39.601Z,101759.44
2022-10-28T02:20:21.554Z,101751.31
2022-10-28T02:22:57.927Z,101759.09
2022-10-28T02:25:35.962Z,101754.03
2022-10-28T02:31:07.176Z,101757.78
2022-10-28T02:33:43.722Z,101765.72
2022-10-28T02:36:21.633Z,101770.47
2022-10-28T02:38:57.812Z,101769.94
2022-10-28T02:41:34.898Z,101772.31
2022-10-28T02:44:11.563Z,101766.91
2022-10-28T02:46:47.065Z,101755.91
2022-10-28T02:49:19.282Z,101748.31
2022-10-28T02:51:58.283Z,101753.38
2022-10-28T02:54:36.041Z,101750.28
2022-10-28T02:57:11.984Z,101763.84
2022-10-28T02:59:44.202Z,101764.69
2022-10-28T03:02:15.910Z,101764.88
2022-10-28T03:04:48.121Z,101767.41
2022-10-28T03:07:23.305Z,101752.00
2022-10-28T03:09:55.165Z,101763.03
2022-10-28T03:12:27.052Z,101760.47
2022-10-28T03:14:59.082Z,101747.94
2022-10-28T03:17:30.960Z,101749.13
2022-10-28T03:20:02.890Z,101747.09
2022-10-28T03:22:37.404Z,101747.28
2022-10-28T03:25:10.203Z,101744.38
2022-10-28T03:27:44.403Z,101745.25
2022-10-28T03:30:18.812Z,101742.03
2022-10-28T03:32:54.419Z,101737.81
2022-10-28T03:35:27.223Z,101740.81
2022-10-28T03:38:01.884Z,101758.63
2022-10-28T03:40:34.664Z,101760.63
2022-10-28T03:43:06.763Z,101772.81
2022-10-28T03:45:38.896Z,101769.91
2022-10-28T03:48:10.972Z,101768.72
2022-10-28T03:50:43.324Z,101770.91
2022-10-28T03:53:18.123Z,101765.81
2022-10-28T03:55:55.622Z,101759.41
2022-10-28T03:58:28.273Z,101751.31
2022-10-28T04:01:01.070Z,101752.69
2022-10-28T04:03:33.702Z,101755.56
2022-10-28T04:06:06.553Z,101745.75
2022-10-28T04:08:41.955Z,101740.97
2022-10-28T04:11:14.293Z,101743.69
2022-10-28T04:13:46.120Z,101741.16
2022-10-28T04:16:17.903Z,101735.59
2022-10-28T04:18:49.329Z,101743.84
2022-10-28T04:21:22.440Z,101738.44
2022-10-28T04:23:59.822Z,101753.31
2022-10-28T04:26:33.488Z,101756.00
2022-10-28T04:29:04.873Z,101747.38
2022-10-28T04:31:36.913Z,101744.84
2022-10-28T04:34:10.496Z,101741.97
2022-10-28T04:36:43.023Z,101739.75
2022-10-28T04:39:17.773Z,101732.16
2022-10-28T04:41:50.632Z,101739.75
2022-10-28T04:44:22.562Z,101740.09
2022-10-28T04:46:54.832Z,101743.28
2022-10-28T04:49:26.904Z,101735.69
2022-10-28T04:51:59.251Z,101731.47
2022-10-28T04:54:34.093Z,101730.13
2022-10-28T04:57:06.704Z,101734.84
2022-10-28T04:59:38.684Z,101723.66
2022-10-28T05:02:11.290Z,101730.31
2022-10-28T05:04:56.838Z,101733.34
2022-10-28T05:07:29.715Z,101729.38
2022-10-28T05:10:04.435Z,101731.03
2022-10-28T05:12:36.783Z,101725.31
2022-10-28T05:15:10.452Z,101730.94
2022-10-28T05:17:43.586Z,101730.59
2022-10-28T05:20:17.216Z,101727.00
2022-10-28T05:22:50.529Z,101723.81
2022-10-28T05:25:26.083Z,101718.06
2022-10-28T05:28:01.765Z,101701.19
2022-10-28T05:30:33.893Z,101713.16
2022-10-28T05:33:06.481Z,101724.19
2022-10-28T05:35:38.813Z,101719.28
2022-10-28T05:38:11.442Z,101726.72
2022-10-28T05:40:46.365Z,101722.31
2022-10-28T05:43:18.580Z,101714.19
2022-10-28T05:45:56.084Z,101714.94
2022-10-28T05:48:28.565Z,101709.16
2022-10-28T05:51:00.624Z,101707.13
2022-10-28T05:53:33.184Z,101698.19
2022-10-28T05:56:08.462Z,101704.78
2022-10-28T05:58:41.059Z,101699.53
2022-10-28T06:01:13.309Z,101711.22
2022-10-28T06:03:46.043Z,101708.34
2022-10-28T06:06:18.205Z,101708.53
2022-10-28T06:08:50.834Z,101708.00
2022-10-28T06:11:24.166Z,101705.47
2022-10-28T06:13:56.510Z,101694.16
2022-10-28T06:16:28.792Z,101702.28
2022-10-28T06:19:01.380Z,101687.88
2022-10-28T06:21:33.037Z,101688.25
2022-10-28T06:24:07.547Z,101686.69
2022-10-28T06:26:44.734Z,101691.41
2022-10-28T06:29:17.105Z,101686.53
2022-10-28T06:31:50.155Z,101695.81
2022-10-28T06:34:26.089Z,101693.22
2022-10-28T06:37:00.572Z,101682.25
2022-10-28T06:39:32.722Z,101688.69
2022-10-28T06:42:09.260Z,101687.41
2022-10-28T06:44:40.967Z,101679.47
2022-10-28T06:47:16.432Z,101681.88
2022-10-28T06:49:48.120Z,101681.56
2022-10-28T06:52:19.659Z,101690.69
2022-10-28T06:54:52.611Z,101701.69
2022-10-28T06:57:29.282Z,101698.31
2022-10-28T07:00:02.156Z,101677.63
2022-10-28T07:02:34.646Z,101692.00
2022-10-28T07:05:07.802Z,101704.97
2022-10-28T07:07:43.184Z,101705.81
2022-10-28T07:10:15.786Z,101712.34
2022-10-28T07:12:50.932Z,101714.19
2022-10-28T07:15:23.202Z,101716.03
2022-10-28T07:17:58.465Z,101705.59
2022-10-28T07:20:33.467Z,101693.25
2022-10-28T07:23:06.308Z,101700.66
2022-10-28T07:25:38.536Z,101708.34
2022-10-28T07:28:12.969Z,101701.63
2022-10-28T07:30:45.103Z,101710.66
2022-10-28T07:33:17.194Z,101713.47
2022-10-28T07:35:49.457Z,101705.75
2022-10-28T07:38:21.659Z,101702.09
2022-10-28T07:40:53.656Z,101700.69
2022-10-28T07:43:28.377Z,101700.47
2022-10-28T07:46:01.177Z,101695.69
2022-10-28T07:48:33.035Z,101693.88
2022-10-28T07:51:05.775Z,101699.81
2022-10-28T07:53:38.580Z,101702.19
2022-10-28T07:56:13.852Z,101704.06
2022-10-28T07:58:48.809Z,101700.69
2022-10-28T08:01:24.979Z,101683.53
2022-10-28T08:03:57.082Z,101699.19
2022-10-28T08:06:29.140Z,101696.59
2022-10-28T08:09:01.933Z,101698.03
2022-10-28T08:11:34.147Z,101707.81
2022-10-28T08:14:08.582Z,101714.19
2022-10-28T08:16:40.778Z,101724.81
2022-10-28T08:19:14.115Z,101731.00
2022-10-28T08:21:46.293Z,101732.28
2022-10-28T08:24:18.353Z,101729.69
2022-10-28T08:26:50.761Z,101717.38
2022-10-28T08:29:29.855Z,101716.00
2022-10-28T08:32:02.351Z,101710.13
2022-10-28T08:34:35.097Z,101722.88
2022-10-28T08:37:09.838Z,101726.78
2022-10-28T08:39:41.771Z,101720.75
2022-10-28T08:42:30.250Z,101719.72
2022-10-28T08:45:22.090Z,101712.00
2022-10-28T08:48:06.046Z,101715.22
2022-10-28T08:50:45.555Z,101720.59
2022-10-28T08:53:22.378Z,101711.75
2022-10-28T08:55:58.315Z,101727.53
2022-10-28T08:58:34.455Z,101726.13
2022-10-28T09:01:12.709Z,101717.06
2022-10-28T09:03:49.163Z,101728.22
2022-10-28T09:06:21.054Z,101719.56
2022-10-28T09:08:53.637Z,101724.91
2022-10-28T09:11:56.814Z,101727.69
2022-10-28T09:14:41.698Z,101710.19
2022-10-28T09:17:21.796Z,101699.06
2022-10-28T09:19:56.739Z,101695.84
2022-10-28T09:22:35.828Z,101686.25
2022-10-28T09:25:19.119Z,101686.44
2022-10-28T09:28:04.554Z,101681.78
2022-10-28T09:30:49.042Z,101683.59
2022-10-28T09:33:40.276Z,101691.69
2022-10-28T09:36:18.537Z,101688.00
2022-10-28T09:38:51.157Z,101690.41
2022-10-28T09:44:35.315Z,101681.06
2022-10-28T09:47:18.219Z,101683.44
2022-10-28T09:49:54.934Z,101680.25
2022-10-28T09:52:33.080Z,101672.94
2022-10-28T09:55:11.053Z,101673.44
2022-10-28T09:57:44.391Z,101668.03
2022-10-28T10:00:18.329Z,101655.59
2022-10-28T10:02:50.993Z,101659.94
2022-10-28T10:05:25.692Z,101660.88
2022-10-28T10:08:00.997Z,101662.88
2022-10-28T10:10:39.576Z,101656.06
2022-10-28T10:13:12.832Z,101657.44
2022-10-28T10:15:49.640Z,101654.13
2022-10-28T10:18:26.260Z,101651.06
2022-10-28T10:21:01.782Z,101653.47
2022-10-28T10:23:36.049Z,101646.13
2022-10-28T10:26:12.493Z,101637.63
2022-10-28T10:28:49.317Z,101643.84
2022-10-28T10:31:23.343Z,101644.47
2022-10-28T10:33:57.494Z,101627.84
2022-10-28T10:36:32.402Z,101632.69
2022-10-28T10:39:06.026Z,101630.81
2022-10-28T10:41:39.078Z,101624.38
2022-10-28T10:44:34.590Z,101617.75
2022-10-28T10:47:23.458Z,101621.84
2022-10-28T10:49:56.739Z,101620.75
2022-10-28T10:52:31.486Z,101619.41
2022-10-28T10:55:08.002Z,101613.56
2022-10-28T10:57:41.599Z,101613.75
2022-10-28T11:00:20.665Z,101600.59
2022-10-28T11:02:55.866Z,101596.09
2022-10-28T11:05:35.635Z,101598.16
2022-10-28T11:08:45.920Z,101590.00
2022-10-28T11:11:24.808Z,101593.50
2022-10-28T11:14:08.841Z,101593.13
2022-10-28T11:16:54.687Z,101588.50
2022-10-28T11:19:31.275Z,101586.09
2022-10-28T11:22:17.351Z,101597.00
2022-10-28T11:25:35.054Z,101584.44
2022-10-28T11:28:30.763Z,101583.03
2022-10-28T11:31:15.143Z,101581.72
2022-10-28T11:33:55.224Z,101586.97
2022-10-28T11:36:51.223Z,101583.63
2022-10-28T11:39:54.132Z,101577.03
2022-10-28T11:43:01.884Z,101576.44
2022-10-28T11:46:10.484Z,101562.22
2022-10-28T11:49:14.525Z,101562.94
2022-10-28T13:01:01.413Z,101532.69
2022-10-28T13:03:54.880Z,101521.94
2022-10-28T13:06:43.826Z,101520.63
2022-10-28T13:09:39.733Z,101515.84
2022-10-28T13:12:36.193Z,101517.63
2022-10-28T13:15:50.316Z,101524.56
2022-10-28T13:18:58.591Z,101513.81
2022-10-28T13:21:47.384Z,101508.44
2022-10-28T13:24:29.173Z,101513.22
2022-10-28T13:27:05.245Z,101502.56
2022-10-28T13:29:38.341Z,101499.81
2022-10-28T13:32:35.822Z,101498.41
2022-10-28T13:35:27.501Z,101500.19
2022-10-28T13:38:02.367Z,101495.59
2022-10-28T13:41:04.242Z,101493.91
2022-10-28T13:44:06.228Z,101497.13
2022-10-28T13:47:08.329Z,101490.28
2022-10-28T13:49:41.937Z,101497.63
2022-10-28T13:52:25.348Z,101493.09
2022-10-28T13:55:00.708Z,101498.09
2022-10-28T13:57:38.790Z,101494.50
2022-10-28T14:00:39.157Z,101495.84
2022-10-28T14:03:22.917Z,101500.84
2022-10-28T14:05:59.501Z,101487.59
2022-10-28T14:08:41.393Z,101490.66
2022-10-28T14:11:16.966Z,101488.84
2022-10-28T14:13:53.805Z,101484.56
2022-10-28T14:16:30.665Z,101485.84
2022-10-28T14:19:07.167Z,101475.16
2022-10-28T14:22:02.654Z,101485.84
2022-10-28T14:24:39.948Z,101478.00
2022-10-28T14:27:45.213Z,101487.00
2022-10-28T14:30:25.903Z,101479.13
2022-10-28T14:33:06.183Z,101480.59
2022-10-28T14:35:44.202Z,101480.13
2022-10-28T14:38:48.865Z,101477.38
2022-10-28T14:41:52.620Z,101470.53
2022-10-28T14:44:55.703Z,101471.94
2022-10-28T14:47:53.998Z,101476.50
2022-10-28T14:50:29.804Z,101475.59
2022-10-28T14:53:07.104Z,101478.63
2022-10-28T14:55:43.086Z,101472.72
2022-10-28T14:58:27.764Z,101470.00
2022-10-28T15:01:11.088Z,101473.47
2022-10-28T15:03:43.138Z,101473.22
2022-10-28T15:06:30.481Z,101473.66
2022-10-28T15:09:09.066Z,101467.09
2022-10-28T15:11:48.898Z,101468.69
2022-10-28T15:14:34.779Z,101460.81
2022-10-28T15:17:18.795Z,101457.00
2022-10-28T15:19:52.840Z,101457.44
2022-10-28T15:22:26.314Z,101459.91
2022-10-28T15:25:02.896Z,101456.56
2022-10-28T15:27:37.002Z,101458.63
2022-10-28T15:30:19.273Z,101459.84
2022-10-28T15:32:51.370Z,101470.16
2022-10-28T15:35:42.776Z,101467.63
2022-10-28T15:38:38.512Z,101464.22
2022-10-28T15:41:49.678Z,101460.94
2022-10-28T15:44:37.339Z,101466.25
2022-10-28T15:47:22.488Z,101464.38
2022-10-28T15:50:06.964Z,101464.19
2022-10-28T15:52:41.227Z,101459.44
2022-10-28T15:55:41.484Z,101469.19
2022-10-28T15:58:39.230Z,101460.34
2022-10-28T16:01:29.909Z,101468.44
2022-10-28T16:04:04.521Z,101468.34
2022-10-28T16:06:39.632Z,101459.06
2022-10-28T16:09:21.452Z,101467.13
2022-10-28T16:11:56.883Z,101462.13
2022-10-28T16:14:47.893Z,101462.81
2022-10-28T16:17:24.191Z,101455.50
2022-10-28T16:20:02.797Z,101454.22
2022-10-28T16:22:39.275Z,101454.88
2022-10-28T16:25:17.195Z,101453.38
2022-10-28T16:27:50.608Z,101451.72
2022-10-28T16:33:15.411Z,101455.34
2022-10-28T16:35:50.100Z,101454.28
2022-10-28T16:38:23.176Z,101463.72
2022-10-28T16:40:56.781Z,101468.56
2022-10-28T16:43:30.917Z,101466.94
2022-10-28T16:46:04.000Z,101467.13
2022-10-28T16:48:43.436Z,101455.78
2022-10-28T16:51:33.787Z,101457.25
2022-10-28T16:54:37.200Z,101462.50
2022-10-28T16:57:13.685Z,101462.91
2022-10-28T16:59:46.061Z,101467.28
2022-10-28T17:02:22.456Z,101456.00
2022-10-28T17:04:59.798Z,101459.53
2022-10-28T17:07:34.781Z,101464.59
2022-10-28T17:10:07.939Z,101452.41
2022-10-28T17:12:40.792Z,101449.69
2022-10-28T17:15:14.101Z,101452.22
2022-10-28T17:17:47.270Z,101463.31
2022-10-28T17:20:19.613Z,101454.28
2022-10-28T17:22:55.225Z,101465.59
2022-10-28T17:25:27.736Z,101472.53
2022-10-28T17:28:00.382Z,101472.31
2022-10-28T17:30:33.703Z,101467.91
2022-10-28T17:33:06.466Z,101479.84
2022-10-28T17:35:46.406Z,101464.72
2022-10-28T17:38:21.604Z,101467.25
2022-10-28T17:40:57.773Z,101476.03
2022-10-28T17:43:34.467Z,101468.09
2022-10-28T17:46:07.882Z,101460.72
2022-10-28T17:48:42.810Z,101463.69
2022-10-28T17:51:14.522Z,101460.28
2022-10-28T17:53:56.952Z,101460.50
2022-10-28T17:56:28.658Z,101464.88
2022-10-28T17:59:01.895Z,101466.38
2022-10-28T18:01:36.329Z,101465.72
2022-10-28T18:04:09.116Z,101467.81
2022-10-28T18:06:50.138Z,101459.63
2022-10-28T18:09:25.919Z,101466.53
2022-10-28T18:12:01.410Z,101461.22
2022-10-28T18:14:33.795Z,101470.19
2022-10-28T18:17:10.539Z,101473.94
2022-10-28T18:19:42.772Z,101472.91
2022-10-28T18:22:17.967Z,101473.56
2022-10-28T18:24:54.563Z,101465.81
2022-10-28T18:27:27.106Z,101467.03
2022-10-28T18:29:59.383Z,101467.44
2022-10-28T18:32:31.251Z,101462.75
2022-10-28T18:35:03.340Z,101461.53
2022-10-28T18:37:50.672Z,101468.25
2022-10-28T18:41:14.713Z,101467.38
2022-10-28T18:43:56.233Z,101466.94
2022-10-28T18:46:30.164Z,101466.78
2022-10-28T18:49:02.364Z,101469.81
2022-10-28T18:51:35.127Z,101464.47
2022-10-28T18:54:07.725Z,101459.28
2022-10-28T18:56:55.182Z,101459.59
2022-10-28T18:59:29.442Z,101456.69
2022-10-28T19:02:01.963Z,101458.59
2022-10-28T19:04:33.994Z,101465.53
2022-10-28T19:07:07.201Z,101464.19
2022-10-28T19:09:39.869Z,101462.75
2022-10-28T19:12:14.921Z,101464.53
2022-10-28T19:14:46.604Z,101461.94
2022-10-28T19:17:19.413Z,101460.25
2022-10-28T19:19:51.996Z,101464.06
2022-10-28T19:22:24.040Z,101463.84
2022-10-28T19:24:55.853Z,101462.63
2022-10-28T19:27:31.140Z,101465.09
2022-10-28T19:30:06.534Z,101461.72
2022-10-28T19:32:42.261Z,101467.00
2022-10-28T19:35:14.034Z,101468.25
2022-10-28T19:37:46.282Z,101466.56
2022-10-28T19:40:18.162Z,101470.78
2022-10-28T19:42:57.256Z,101474.25
2022-10-28T19:45:32.482Z,101482.91
2022-10-28T19:48:05.485Z,101478.09
2022-10-28T19:50:37.647Z,101479.50
2022-10-28T19:53:12.288Z,101483.31
2022-10-28T19:55:44.585Z,101484.34
2022-10-28T19:58:19.968Z,101482.41
2022-10-28T20:00:53.708Z,101486.88
2022-10-28T20:03:26.187Z,101491.56
2022-10-28T20:06:06.118Z,101495.13
2022-10-28T20:08:40.322Z,101496.50
2022-10-28T20:11:13.701Z,101499.28
2022-10-28T20:13:50.160Z,101503.28
2022-10-28T20:16:22.970Z,101503.00
2022-10-28T20:18:58.089Z,101497.56
2022-10-28T20:21:38.809Z,101505.72
2022-10-28T20:24:11.831Z,101507.19
2022-10-28T20:26:44.069Z,101504.19
2022-10-28T20:29:19.372Z,101511.16
2022-10-28T20:31:52.669Z,101516.09
2022-10-28T20:34:26.166Z,101512.47
2022-10-28T20:36:58.207Z,101508.84
2022-10-28T20:39:30.717Z,101508.53
2022-10-28T20:42:02.731Z,101510.19
2022-10-28T20:44:38.211Z,101511.69
2022-10-28T20:47:10.147Z,101513.56
2022-10-28T20:49:42.983Z,101505.44
2022-10-28T20:52:17.007Z,101508.38
2022-10-28T20:54:49.712Z,101507.13
2022-10-28T20:57:21.932Z,101518.84
2022-10-28T20:59:57.833Z,101511.94
2022-10-28T21:02:29.654Z,101519.19
2022-10-28T21:05:02.133Z,101513.28
2022-10-28T21:07:35.502Z,101512.97
2022-10-28T21:10:08.220Z,101523.97
2022-10-28T21:12:40.112Z,101519.97
2022-10-28T21:15:15.742Z,101520.19
2022-10-28T21:17:47.789Z,101527.16
2022-10-28T21:20:23.270Z,101527.75
2022-10-28T21:22:55.496Z,101522.91
2022-10-28T21:25:28.174Z,101521.25
2022-10-28T21:28:03.970Z,101524.25
2022-10-28T21:30:38.850Z,101520.81
2022-10-28T21:33:12.316Z,101520.22
2022-10-28T21:35:45.411Z,101517.19
2022-10-28T21:38:18.350Z,101519.09
2022-10-28T21:40:50.730Z,101514.44
2022-10-28T21:43:22.728Z,101525.69
2022-10-28T21:45:58.595Z,101519.19
2022-10-28T21:48:32.453Z,101526.63
2022-10-28T21:51:11.635Z,101522.91
2022-10-28T21:54:21.714Z,101524.78
2022-10-28T21:56:55.351Z,101515.06
2022-10-28T21:59:27.814Z,101518.53
2022-10-28T22:02:03.534Z,101522.63
2022-10-28T22:04:36.076Z,101523.53
2022-10-28T22:07:08.343Z,101524.25
2022-10-28T22:09:40.501Z,101525.66
2022-10-28T22:12:13.035Z,101532.66
2022-10-28T22:14:45.023Z,101529.22
2022-10-28T22:17:20.086Z,101531.00
2022-10-28T22:19:52.658Z,101533.28
2022-10-28T22:22:26.707Z,101535.81
2022-10-28T22:24:58.505Z,101533.84
2022-10-28T22:27:30.672Z,101539.81
2022-10-28T22:30:02.574Z,101548.88
2022-10-28T22:32:37.590Z,101539.25
2022-10-28T22:35:11.092Z,101549.28
2022-10-28T22:37:43.746Z,101545.50
2022-10-28T22:40:15.948Z,101542.59
2022-10-28T22:42:48.016Z,101548.22
2022-10-28T22:45:20.071Z,101547.31
2022-10-28T22:47:55.884Z,101546.28
2022-10-28T22:50:28.143Z,101541.88
2022-10-28T22:53:00.540Z,101547.81
2022-10-28T22:55:32.749Z,101553.72
2022-10-28T22:58:05.257Z,101566.53
2022-10-28T23:00:39.756Z,101568.28
2022-10-28T23:03:17.428Z,101571.84
2022-10-28T23:05:49.802Z,101579.94
2022-10-28T23:08:22.383Z,101574.88
2022-10-28T23:10:54.712Z,101583.31
2022-10-28T23:13:27.345Z,101591.59
2022-10-28T23:15:59.600Z,101593.22
2022-10-28T23:18:35.003Z,101581.28
2022-10-28T23:21:09.057Z,101592.28
2022-10-28T23:23:42.089Z,101578.38
2022-10-28T23:26:44.093Z,101580.91
2022-10-28T23:29:17.421Z,101581.88
2022-10-28T23:31:49.230Z,101586.66
2022-10-28T23:34:24.402Z,101602.03
2022-10-28T23:36:56.471Z,101602.03
2022-10-28T23:39:32.991Z,101587.31
2022-10-28T23:42:05.450Z,101593.59
2022-10-28T23:44:37.325Z,101591.31
2022-10-28T23:47:09.077Z,101587.31
2022-10-28T23:49:43.858Z,101590.41
2022-10-28T23:52:16.056Z,101593.03
2022-10-28T23:54:48.077Z,101591.19
2022-10-28T23:57:20.091Z,101593.81
2022-10-28T23:59:53.919Z,101591.03
